Time;durP1;ratioP1;P1;durP2;ratioP2;P2;SDS_P1;SDS_P2;PMS_P1;PMS_P2;Temp;Humidity;BMP_temperature;BMP_pressure;BME280_temperature;BME280_humidity;BME280_pressure;Samples;Min_cycle;Max_cycle;Signal;HPM_P1;HPM_P2
2022/05/09 00:37:53;;;;;;;7.03;2.40;;;;;;;;;;5124210;28;20031;-87
2022/05/09 00:56:23;;;;;;;5.10;2.10;;;;;;;;;;4987417;28;20300;-86
2022/05/09 01:24:24;;;;;;;6.25;2.08;;;;;;;;;;4675470;30;20059;-85
2022/05/09 01:33:17;;;;;;;5.05;2.03;;;;;;;;;;4664551;30;20460;-85
2022/05/09 02:24:32;;;;;;;5.63;1.80;;;;;;;;;;5005574;28;20049;-85
2022/05/09 02:33:43;;;;;;;7.18;2.22;;;;;;;;;;4898184;29;20049;-85
2022/05/09 02:42:58;;;;;;;8.32;2.17;;;;;;;;;;4767600;30;20058;-85
2022/05/09 02:47:30;;;;;;;5.40;2.00;;;;;;;;;;4631429;31;20590;-85
2022/05/09 02:52:18;;;;;;;4.97;1.63;;;;;;;;;;4666178;30;20023;-86
2022/05/09 03:01:28;;;;;;;8.40;1.63;;;;;;;;;;4643109;30;20076;-86
2022/05/09 03:07:16;;;;;;;8.65;1.80;;;;;;;;;;4660173;30;20502;-85
2022/05/09 03:10:47;;;;;;;4.55;1.70;;;;;;;;;;4650258;30;20147;-85
2022/05/09 04:36:05;;;;;;;4.25;1.80;;;;;;;;;;5059259;28;20050;-82
2022/05/09 04:38:33;;;;;;;6.70;1.95;;;;;;;;;;5058615;28;20453;-84
2022/05/09 04:41:02;;;;;;;9.63;2.00;;;;;;;;;;5057098;28;20069;-83
2022/05/09 04:43:33;;;;;;;3.33;1.77;;;;;;;;;;5043336;28;20450;-83
2022/05/09 04:46:05;;;;;;;6.50;2.13;;;;;;;;;;5036897;28;20099;-83
2022/05/09 04:48:35;;;;;;;7.32;2.10;;;;;;;;;;5058101;28;20049;-83
2022/05/09 04:51:18;;;;;;;8.27;2.25;;;;;;;;;;5014004;28;20048;-84
2022/05/09 04:53:49;;;;;;;7.43;2.60;;;;;;;;;;5035294;28;20131;-83
2022/05/09 04:56:20;;;;;;;6.35;2.22;;;;;;;;;;4990977;28;20045;-83
2022/05/09 04:59:00;;;;;;;8.15;2.95;;;;;;;;;;5036758;28;20053;-84
2022/05/09 05:01:54;;;;;;;6.97;2.20;;;;;;;;;;5006521;28;20068;-85
2022/05/09 05:04:38;;;;;;;9.95;2.25;;;;;;;;;;5038564;28;20068;-85
2022/05/09 05:07:20;;;;;;;4.75;1.90;;;;;;;;;;4983858;28;20074;-85
2022/05/09 05:09:48;;;;;;;6.13;2.10;;;;;;;;;;5027468;28;20049;-82
2022/05/09 05:12:16;;;;;;;7.20;2.05;;;;;;;;;;5024667;28;20061;-82
2022/05/09 05:14:44;;;;;;;7.63;2.13;;;;;;;;;;5040563;28;20053;-82
2022/05/09 05:17:14;;;;;;;7.68;1.80;;;;;;;;;;5021092;28;20034;-82
2022/05/09 05:19:48;;;;;;;10.82;2.40;;;;;;;;;;5024987;28;20063;-82
2022/05/09 05:22:34;;;;;;;6.65;2.00;;;;;;;;;;5013177;28;20053;-85
2022/05/09 05:26:48;;;;;;;10.63;2.78;;;;;;;;;;4981468;28;20061;-84
2022/05/09 05:29:21;;;;;;;;;;;;;;;;;;4990353;28;20069;-84
2022/05/09 05:32:19;;;;;;;6.60;2.00;;;;;;;;;;5010097;28;19932;-83
2022/05/09 05:34:47;;;;;;;6.72;2.20;;;;;;;;;;4994709;28;20058;-82
2022/05/09 05:37:20;;;;;;;5.20;2.40;;;;;;;;;;5003016;28;20117;-82
2022/05/09 05:40:27;;;;;;;5.43;1.92;;;;;;;;;;5016294;28;20041;-79
2022/05/09 05:42:54;;;;;;;8.05;1.88;;;;;;;;;;5014464;28;20237;-82
2022/05/09 05:45:23;;;;;;;6.10;2.03;;;;;;;;;;5006883;28;20101;-81
2022/05/09 05:47:58;;;;;;;6.40;1.95;;;;;;;;;;5005156;28;20050;-83
2022/05/09 05:52:03;;;;;;;5.68;2.10;;;;;;;;;;4992825;28;20050;-80
2022/05/09 05:54:41;;;;;;;10.18;2.00;;;;;;;;;;5004604;28;20058;-83
2022/05/09 05:57:23;;;;;;;6.93;2.08;;;;;;;;;;5030545;28;20077;-83
2022/05/09 05:59:58;;;;;;;9.65;2.03;;;;;;;;;;5036088;28;20168;-84
2022/05/09 06:02:27;;;;;;;9.60;2.53;;;;;;;;;;5041545;28;20057;-83
2022/05/09 06:05:24;;;;;;;10.50;2.00;;;;;;;;;;5060424;28;20394;-83
2022/05/09 06:07:55;;;;;;;7.40;1.90;;;;;;;;;;5046769;28;20049;-83
2022/05/09 06:10:36;;;;;;;13.07;2.60;;;;;;;;;;5027889;28;20441;-84
2022/05/09 06:13:19;;;;;;;7.88;2.15;;;;;;;;;;5048439;28;20057;-86
2022/05/09 06:15:46;;;;;;;9.88;2.63;;;;;;;;;;5048755;28;20088;-86
2022/05/09 06:18:15;;;;;;;9.38;1.60;;;;;;;;;;5049894;28;20049;-86
2022/05/09 06:20:44;;;;;;;5.90;2.03;;;;;;;;;;5055818;28;20048;-85
2022/05/09 06:23:33;;;;;;;10.75;2.10;;;;;;;;;;5014568;28;20130;-86
2022/05/09 06:26:02;;;;;;;10.40;2.00;;;;;;;;;;5029320;28;20044;-85
2022/05/09 06:34:34;;;;;;;11.52;2.08;;;;;;;;;;4998413;28;20098;-85
2022/05/09 06:37:57;;;;;;;8.15;2.00;;;;;;;;;;4993572;28;20131;-80
2022/05/09 06:40:25;;;;;;;10.40;2.03;;;;;;;;;;4984169;28;20058;-79
2022/05/09 06:42:54;;;;;;;9.13;1.83;;;;;;;;;;4992732;28;20053;-79
2022/05/09 06:45:27;;;;;;;10.65;1.70;;;;;;;;;;5001409;28;20160;-79
2022/05/09 06:47:55;;;;;;;9.10;1.80;;;;;;;;;;4999448;28;20046;-79
2022/05/09 06:50:30;;;;;;;7.90;1.75;;;;;;;;;;4983421;28;20053;-79
2022/05/09 06:53:02;;;;;;;5.70;1.63;;;;;;;;;;5016918;28;20116;-78
2022/05/09 06:55:48;;;;;;;6.40;1.80;;;;;;;;;;5018396;28;20092;-79
2022/05/09 06:58:21;;;;;;;5.60;1.60;;;;;;;;;;5015634;28;20050;-79
2022/05/09 07:00:53;;;;;;;8.38;1.60;;;;;;;;;;5002516;28;20054;-79
2022/05/09 07:03:20;;;;;;;6.95;1.63;;;;;;;;;;5016661;28;20116;-78
2022/05/09 07:05:51;;;;;;;9.60;1.80;;;;;;;;;;5013186;28;20057;-79
2022/05/09 07:08:21;;;;;;;7.95;1.60;;;;;;;;;;5031259;28;20501;-79
2022/05/09 07:10:48;;;;;;;4.28;1.90;;;;;;;;;;5017047;28;20114;-79
2022/05/09 07:13:38;;;;;;;6.45;1.65;;;;;;;;;;5039355;28;20057;-79
2022/05/09 07:16:05;;;;;;;8.32;1.80;;;;;;;;;;5058554;28;20052;-79
2022/05/09 07:18:32;;;;;;;7.22;1.70;;;;;;;;;;5025125;28;20391;-79
2022/05/09 07:21:00;;;;;;;12.07;1.63;;;;;;;;;;5041885;28;20045;-81
2022/05/09 07:23:28;;;;;;;5.93;1.40;;;;;;;;;;5039138;28;20127;-80
2022/05/09 07:25:56;;;;;;;10.43;1.80;;;;;;;;;;5059407;28;21231;-80
2022/05/09 07:28:26;;;;;;;5.85;1.50;;;;;;;;;;5040178;28;20052;-81
2022/05/09 07:30:56;;;;;;;8.90;1.63;;;;;;;;;;5039382;28;20040;-82
2022/05/09 07:33:25;;;;;;;7.75;1.95;;;;;;;;;;5039626;28;20505;-80
2022/05/09 07:35:52;;;;;;;6.82;1.45;;;;;;;;;;5037998;28;20102;-80
2022/05/09 07:38:20;;;;;;;7.50;2.00;;;;;;;;;;5058294;28;20098;-80
2022/05/09 07:40:48;;;;;;;5.93;1.42;;;;;;;;;;5057384;28;20076;-80
2022/05/09 07:43:23;;;;;;;8.25;1.73;;;;;;;;;;5056896;28;20049;-80
2022/05/09 07:45:52;;;;;;;4.57;1.13;;;;;;;;;;5037223;28;20158;-80
2022/05/09 07:48:25;;;;;;;5.45;1.58;;;;;;;;;;5039088;28;20505;-80
2022/05/09 07:50:54;;;;;;;6.18;1.73;;;;;;;;;;5040290;28;20049;-80
2022/05/09 07:53:29;;;;;;;7.13;1.58;;;;;;;;;;5056809;28;20071;-80
2022/05/09 07:56:02;;;;;;;6.72;2.55;;;;;;;;;;5039705;28;20420;-80
2022/05/09 07:58:31;;;;;;;5.80;1.45;;;;;;;;;;5054742;28;20482;-80
2022/05/09 08:00:59;;;;;;;8.70;1.65;;;;;;;;;;5051557;28;20048;-76
2022/05/09 08:03:31;;;;;;;2.75;1.10;;;;;;;;;;5055478;28;20051;-76
2022/05/09 08:06:02;;;;;;;6.07;1.67;;;;;;;;;;5055517;28;20048;-76
2022/05/09 08:08:35;;;;;;;5.30;1.60;;;;;;;;;;5056636;28;20048;-76
2022/05/09 08:11:12;;;;;;;7.15;1.73;;;;;;;;;;5054003;28;21004;-76
2022/05/09 08:13:41;;;;;;;6.32;1.63;;;;;;;;;;5019618;28;20056;-76
2022/05/09 08:16:09;;;;;;;7.00;1.60;;;;;;;;;;5054105;28;20061;-77
2022/05/09 08:18:36;;;;;;;6.93;2.25;;;;;;;;;;5041662;28;20123;-76
2022/05/09 08:21:04;;;;;;;9.98;1.85;;;;;;;;;;5054927;28;20049;-77
2022/05/09 08:23:32;;;;;;;7.30;1.52;;;;;;;;;;5057327;28;20638;-76
2022/05/09 08:26:03;;;;;;;5.03;1.35;;;;;;;;;;5038126;28;20052;-77
2022/05/09 08:28:31;;;;;;;7.13;1.65;;;;;;;;;;5049387;28;20565;-76
2022/05/09 08:30:58;;;;;;;6.32;1.75;;;;;;;;;;5049683;28;20083;-76
2022/05/09 08:33:28;;;;;;;6.55;1.50;;;;;;;;;;5049473;28;20048;-75
2022/05/09 08:35:57;;;;;;;6.63;1.60;;;;;;;;;;5033209;28;20056;-76
2022/05/09 08:38:24;;;;;;;8.13;1.88;;;;;;;;;;5054056;28;20056;-77
2022/05/09 08:41:07;;;;;;;7.82;1.90;;;;;;;;;;5035149;28;20424;-77
2022/05/09 08:44:05;;;;;;;5.97;2.10;;;;;;;;;;5051422;28;20092;-77
2022/05/09 08:47:03;;;;;;;3.95;1.50;;;;;;;;;;5048932;28;20057;-77
2022/05/09 08:50:01;;;;;;;5.38;1.55;;;;;;;;;;5051993;28;20041;-77
2022/05/09 08:52:39;;;;;;;5.03;1.50;;;;;;;;;;5052334;28;20129;-77
2022/05/09 08:55:07;;;;;;;6.90;1.27;;;;;;;;;;5054640;28;20053;-77
2022/05/09 08:57:38;;;;;;;8.80;1.60;;;;;;;;;;5018582;28;20406;-77
2022/05/09 09:00:12;;;;;;;5.03;1.55;;;;;;;;;;5050991;28;20132;-80
2022/05/09 09:02:46;;;;;;;6.68;1.98;;;;;;;;;;5037362;28;20098;-82
2022/05/09 09:05:21;;;;;;;6.47;1.75;;;;;;;;;;5056523;28;20118;-81
2022/05/09 09:07:59;;;;;;;8.90;1.75;;;;;;;;;;5054898;28;20048;-81
2022/05/09 09:10:52;;;;;;;4.75;1.80;;;;;;;;;;5054314;28;20803;-81
2022/05/09 09:13:38;;;;;;;7.38;1.52;;;;;;;;;;5054587;28;20044;-81
2022/05/09 09:16:46;;;;;;;7.00;1.60;;;;;;;;;;5052101;28;20055;-81
2022/05/09 09:19:36;;;;;;;11.70;1.70;;;;;;;;;;5054668;28;20048;-81
2022/05/09 09:22:33;;;;;;;7.53;1.90;;;;;;;;;;5056181;28;20597;-80
2022/05/09 09:25:33;;;;;;;6.53;1.70;;;;;;;;;;5009231;28;20075;-81
2022/05/09 09:28:21;;;;;;;;;;;;;;;;;;5056317;28;20656;-81
2022/05/09 09:30:49;;;;;;;7.30;1.90;;;;;;;;;;5034842;28;19925;-81
2022/05/09 09:33:19;;;;;;;7.72;1.58;;;;;;;;;;5038290;28;20695;-81
2022/05/09 09:36:16;;;;;;;9.23;1.80;;;;;;;;;;5056432;28;20065;-80
2022/05/09 09:38:47;;;;;;;;;;;;;;;;;;4925123;28;20077;-81
2022/05/09 09:41:30;;;;;;;6.75;2.22;;;;;;;;;;4932250;28;20035;-80
2022/05/09 09:44:05;;;;;;;6.85;1.60;;;;;;;;;;4940768;28;20137;-81
2022/05/09 09:46:33;;;;;;;10.43;1.77;;;;;;;;;;4940195;28;20069;-81
2022/05/09 09:49:08;;;;;;;8.00;1.55;;;;;;;;;;4941311;28;20047;-80
2022/05/09 09:51:46;;;;;;;6.70;1.45;;;;;;;;;;4931119;29;20689;-78
2022/05/09 09:54:26;;;;;;;4.60;1.73;;;;;;;;;;4924130;28;20493;-79
2022/05/09 09:57:22;;;;;;;7.47;2.10;;;;;;;;;;4927619;28;20067;-81
2022/05/09 09:59:50;;;;;;;8.02;1.98;;;;;;;;;;4941101;28;20082;-79
2022/05/09 10:02:30;;;;;;;9.70;2.00;;;;;;;;;;4934740;28;20055;-78
2022/05/09 10:05:11;;;;;;;7.43;1.77;;;;;;;;;;4936563;28;20139;-79
2022/05/09 10:07:43;;;;;;;6.03;1.48;;;;;;;;;;4937282;28;20218;-79
2022/05/09 10:10:17;;;;;;;6.93;1.50;;;;;;;;;;4937654;28;20061;-79
2022/05/09 10:12:48;;;;;;;7.68;2.25;;;;;;;;;;4925089;29;20067;-79
2022/05/09 10:15:31;;;;;;;9.00;1.98;;;;;;;;;;4986798;28;20478;-79
2022/05/09 10:17:59;;;;;;;10.50;1.92;;;;;;;;;;5054604;28;20076;-79
2022/05/09 10:20:33;;;;;;;8.40;1.85;;;;;;;;;;5057485;28;20049;-79
2022/05/09 10:26:12;;;;;;;7.55;1.83;;;;;;;;;;5050584;28;20052;-79
2022/05/09 10:28:46;;;;;;;7.25;1.70;;;;;;;;;;5055968;28;20041;-79
2022/05/09 10:31:22;;;;;;;4.82;1.60;;;;;;;;;;5051187;28;20045;-79
2022/05/09 10:33:55;;;;;;;6.72;1.55;;;;;;;;;;5056103;28;20131;-79
2022/05/09 10:36:39;;;;;;;7.97;1.50;;;;;;;;;;5054459;28;20054;-79
2022/05/09 10:39:17;;;;;;;7.18;2.03;;;;;;;;;;5052403;28;20056;-79
2022/05/09 10:41:49;;;;;;;4.85;1.20;;;;;;;;;;5051922;28;20065;-77
2022/05/09 10:44:27;;;;;;;5.25;1.73;;;;;;;;;;5054436;28;20154;-77
2022/05/09 10:47:07;;;;;;;7.75;1.77;;;;;;;;;;5052834;28;20370;-77
2022/05/09 10:49:50;;;;;;;8.10;2.22;;;;;;;;;;5053879;28;20053;-77
2022/05/09 10:52:41;;;;;;;11.77;1.38;;;;;;;;;;5055262;28;20044;-77
2022/05/09 10:55:12;;;;;;;8.48;1.80;;;;;;;;;;5035971;28;20154;-77
2022/05/09 10:58:09;;;;;;;4.43;1.50;;;;;;;;;;5054653;28;20049;-77
2022/05/09 11:00:47;;;;;;;5.82;1.50;;;;;;;;;;5013803;28;20048;-81
2022/05/09 11:03:24;;;;;;;3.55;1.40;;;;;;;;;;5043947;28;20044;-81
2022/05/09 11:06:11;;;;;;;7.93;1.95;;;;;;;;;;5060661;28;20076;-81
2022/05/09 11:08:57;;;;;;;9.45;1.90;;;;;;;;;;5062986;28;20045;-80
2022/05/09 11:11:50;;;;;;;6.68;1.70;;;;;;;;;;5078100;28;20058;-80
2022/05/09 11:14:40;;;;;;;8.73;1.75;;;;;;;;;;5040852;28;20412;-82
2022/05/09 11:17:14;;;;;;;6.20;1.80;;;;;;;;;;5083178;28;20058;-80
2022/05/09 11:19:49;;;;;;;5.32;1.60;;;;;;;;;;5064957;28;20044;-81
2022/05/09 11:22:27;;;;;;;7.35;1.77;;;;;;;;;;5064277;28;20091;-81
2022/05/09 11:25:06;;;;;;;3.88;1.35;;;;;;;;;;5081059;28;20025;-81
2022/05/09 11:28:10;;;;;;;7.93;1.58;;;;;;;;;;5081016;28;20108;-81
2022/05/09 11:30:38;;;;;;;6.25;1.70;;;;;;;;;;5059667;28;20048;-82
2022/05/09 11:33:34;;;;;;;7.85;1.83;;;;;;;;;;5064916;28;21010;-81
2022/05/09 11:36:19;;;;;;;6.10;2.25;;;;;;;;;;5058103;28;20053;-80
2022/05/09 11:39:21;;;;;;;5.28;1.33;;;;;;;;;;5044098;28;20063;-81
2022/05/09 11:43:27;;;;;;;8.00;1.85;;;;;;;;;;4969458;28;20133;-82
2022/05/09 11:45:21;;;;;;;3.60;1.38;;;;;;;;;;4970697;28;20067;-81
2022/05/09 11:48:19;;;;;;;8.63;1.90;;;;;;;;;;4894181;29;20074;-81
2022/05/09 11:51:05;;;;;;;6.00;1.90;;;;;;;;;;4895306;29;20060;-81
2022/05/09 11:53:42;;;;;;;6.20;1.70;;;;;;;;;;4882482;29;20422;-80
2022/05/09 11:56:23;;;;;;;10.57;2.35;;;;;;;;;;4877696;29;20204;-81
2022/05/09 11:58:58;;;;;;;6.88;1.58;;;;;;;;;;4878050;29;20112;-81
2022/05/09 12:01:59;;;;;;;10.30;2.15;;;;;;;;;;4877534;29;20060;-81
2022/05/09 12:04:42;;;;;;;7.85;1.70;;;;;;;;;;4879660;29;20076;-81
2022/05/09 12:07:25;;;;;;;6.43;1.70;;;;;;;;;;4879506;29;20105;-81
2022/05/09 12:10:15;;;;;;;6.03;1.77;;;;;;;;;;4897240;29;20140;-81
2022/05/09 12:12:43;;;;;;;5.32;1.80;;;;;;;;;;4878944;29;20718;-78
2022/05/09 12:15:17;;;;;;;6.32;1.70;;;;;;;;;;4890061;29;20068;-78
2022/05/09 12:17:53;;;;;;;9.83;2.10;;;;;;;;;;4891120;29;20056;-77
2022/05/09 12:20:26;;;;;;;6.95;1.50;;;;;;;;;;4953800;28;20047;-78
2022/05/09 12:22:56;;;;;;;6.80;1.73;;;;;;;;;;4940533;28;20062;-78
2022/05/09 12:25:39;;;;;;;6.57;1.45;;;;;;;;;;5016826;28;20044;-79
2022/05/09 12:28:18;;;;;;;5.00;1.67;;;;;;;;;;5036785;28;20098;-78
2022/05/09 12:31:04;;;;;;;7.47;1.65;;;;;;;;;;5053723;28;20108;-78
2022/05/09 12:33:45;;;;;;;5.57;1.60;;;;;;;;;;5033463;28;20055;-78
2022/05/09 12:36:20;;;;;;;6.45;1.52;;;;;;;;;;5053637;28;20072;-78
2022/05/09 12:38:54;;;;;;;6.68;1.40;;;;;;;;;;5052598;28;20049;-78
2022/05/09 12:41:30;;;;;;;7.30;1.50;;;;;;;;;;5048803;28;20498;-78
2022/05/09 12:44:14;;;;;;;6.20;1.70;;;;;;;;;;5020392;28;20048;-78
2022/05/09 12:46:50;;;;;;;;;;;;;;;;;;5021113;28;20144;-78
2022/05/09 12:49:24;;;;;;;6.32;1.30;;;;;;;;;;5037625;28;20820;-78
2022/05/09 12:51:57;;;;;;;6.53;1.70;;;;;;;;;;5049830;28;20088;-78
2022/05/09 12:54:28;;;;;;;7.43;2.03;;;;;;;;;;5053341;28;20299;-78
2022/05/09 12:57:00;;;;;;;7.43;1.80;;;;;;;;;;5051770;28;20056;-80
2022/05/09 12:59:51;;;;;;;6.70;1.85;;;;;;;;;;5052579;28;20134;-78
2022/05/09 13:02:21;;;;;;;6.63;1.75;;;;;;;;;;5050872;28;20526;-81
2022/05/09 13:05:10;;;;;;;7.63;2.08;;;;;;;;;;5058235;28;20098;-81
2022/05/09 13:07:59;;;;;;;6.60;2.05;;;;;;;;;;5059864;28;20398;-81
2022/05/09 13:10:29;;;;;;;5.22;1.45;;;;;;;;;;5055229;28;20136;-81
2022/05/09 13:13:02;;;;;;;7.00;1.65;;;;;;;;;;5057303;28;20041;-81
2022/05/09 13:15:30;;;;;;;8.18;1.80;;;;;;;;;;5040213;28;20048;-81
2022/05/09 13:17:59;;;;;;;4.90;1.60;;;;;;;;;;5054757;28;20905;-81
2022/05/09 13:20:30;;;;;;;4.68;1.50;;;;;;;;;;5055450;28;20048;-82
2022/05/09 13:23:05;;;;;;;5.75;1.70;;;;;;;;;;5022037;28;20080;-85
2022/05/09 13:25:36;;;;;;;7.43;1.77;;;;;;;;;;5024215;28;20075;-83
2022/05/09 13:28:09;;;;;;;7.10;1.60;;;;;;;;;;5025839;28;20052;-83
2022/05/09 13:30:44;;;;;;;6.93;2.15;;;;;;;;;;5044822;28;20053;-83
2022/05/09 13:33:19;;;;;;;7.97;1.50;;;;;;;;;;5058186;28;20455;-83
2022/05/09 13:35:52;;;;;;;6.20;1.70;;;;;;;;;;5041322;28;20052;-82
2022/05/09 13:38:25;;;;;;;6.60;1.90;;;;;;;;;;5055771;28;20048;-83
2022/05/09 13:41:00;;;;;;;6.35;1.45;;;;;;;;;;5010389;28;20052;-84
2022/05/09 13:43:30;;;;;;;6.82;1.65;;;;;;;;;;5058473;28;20055;-84
2022/05/09 13:46:04;;;;;;;8.88;1.83;;;;;;;;;;5019378;28;20102;-84
2022/05/09 13:48:33;;;;;;;5.63;1.60;;;;;;;;;;5041659;28;20047;-85
2022/05/09 13:51:03;;;;;;;4.70;1.45;;;;;;;;;;5045888;28;20057;-84
2022/05/09 13:53:35;;;;;;;8.20;1.50;;;;;;;;;;5042421;28;20048;-83
2022/05/09 13:56:13;;;;;;;6.95;2.15;;;;;;;;;;5061068;28;20072;-82
2022/05/09 13:58:45;;;;;;;7.53;1.65;;;;;;;;;;5063725;28;20052;-82
2022/05/09 14:01:15;;;;;;;6.68;1.70;;;;;;;;;;5029500;28;20044;-82
2022/05/09 14:03:53;;;;;;;7.78;1.60;;;;;;;;;;5046837;28;20049;-82
2022/05/09 14:06:26;;;;;;;7.57;2.00;;;;;;;;;;5058424;28;20072;-82
2022/05/09 14:09:02;;;;;;;7.53;1.67;;;;;;;;;;5026998;28;20049;-83
2022/05/09 14:11:40;;;;;;;5.50;1.70;;;;;;;;;;5043671;28;21070;-80
2022/05/09 14:14:39;;;;;;;7.25;1.75;;;;;;;;;;5074183;28;20044;-81
2022/05/09 14:17:31;;;;;;;4.90;1.85;;;;;;;;;;5059616;28;20041;-81
2022/05/09 14:20:01;;;;;;;4.70;1.67;;;;;;;;;;5051885;28;20552;-80
2022/05/09 14:22:32;;;;;;;7.72;1.70;;;;;;;;;;5017300;28;20057;-79
2022/05/09 14:31:27;;;;;;;7.10;1.63;;;;;;;;;;5017616;28;20767;-78
2022/05/09 14:34:37;;;;;;;6.53;1.80;;;;;;;;;;5053543;28;20123;-78
2022/05/09 14:37:28;;;;;;;5.50;1.70;;;;;;;;;;5031691;28;20422;-78
2022/05/09 14:40:24;;;;;;;;;;;;;;;;;;5052766;28;20045;-79
2022/05/09 14:42:56;;;;;;;5.70;1.75;;;;;;;;;;5033155;28;19920;-77
2022/05/09 14:45:31;;;;;;;6.07;1.80;;;;;;;;;;5037320;28;20413;-80
2022/05/09 14:48:29;;;;;;;4.75;1.63;;;;;;;;;;5044831;28;20056;-80
2022/05/09 14:51:01;;;;;;;6.55;2.17;;;;;;;;;;5062041;28;20048;-80
2022/05/09 14:53:31;;;;;;;;;;;;;;;;;;5062149;28;20109;-81
2022/05/09 14:59:18;;;;;;;;;;;;;;;;;;5043344;28;20542;-80
2022/05/09 15:01:50;;;;;;;5.53;1.52;;;;;;;;;;5059237;28;19955;-80
2022/05/09 15:04:20;;;;;;;6.53;1.80;;;;;;;;;;5062993;28;20091;-81
2022/05/09 15:06:49;;;;;;;6.82;1.75;;;;;;;;;;5044032;28;20139;-81
2022/05/09 15:09:16;;;;;;;5.95;1.52;;;;;;;;;;5036308;28;20064;-81
2022/05/09 15:11:45;;;;;;;7.45;2.00;;;;;;;;;;5055666;28;20449;-82
2022/05/09 15:14:15;;;;;;;6.72;1.75;;;;;;;;;;5042439;28;21006;-80
2022/05/09 15:16:46;;;;;;;6.38;1.65;;;;;;;;;;5043924;28;20505;-81
2022/05/09 15:19:18;;;;;;;5.28;1.60;;;;;;;;;;5026258;28;20598;-80
2022/05/09 15:21:47;;;;;;;;;;;;;;;;;;5043097;28;20048;-80
2022/05/09 15:24:15;;;;;;;8.10;1.60;;;;;;;;;;5025072;28;20357;-80
2022/05/09 15:26:45;;;;;;;6.38;1.92;;;;;;;;;;5008896;28;20052;-79
2022/05/09 15:29:13;;;;;;;7.32;2.05;;;;;;;;;;5057371;28;20558;-80
2022/05/09 15:31:41;;;;;;;9.18;3.20;;;;;;;;;;5040879;28;20192;-79
2022/05/09 15:34:11;;;;;;;5.55;1.85;;;;;;;;;;5040557;28;20053;-80
2022/05/09 15:36:39;;;;;;;6.38;1.65;;;;;;;;;;5059829;28;20068;-81
2022/05/09 15:39:08;;;;;;;5.57;1.52;;;;;;;;;;5040402;28;20053;-81
2022/05/09 15:41:38;;;;;;;7.90;1.70;;;;;;;;;;5041144;28;20044;-80
2022/05/09 15:44:13;;;;;;;7.10;2.05;;;;;;;;;;5056764;28;20087;-81
2022/05/09 15:46:44;;;;;;;8.15;2.40;;;;;;;;;;5059860;28;20056;-81
2022/05/09 15:49:20;;;;;;;9.50;1.83;;;;;;;;;;5027989;28;20418;-80
2022/05/09 15:51:49;;;;;;;5.55;1.88;;;;;;;;;;5039745;28;20912;-79
2022/05/09 15:54:18;;;;;;;4.85;1.63;;;;;;;;;;5041170;28;20048;-80
2022/05/09 15:56:47;;;;;;;4.30;1.50;;;;;;;;;;5041824;28;20045;-81
2022/05/09 15:59:18;;;;;;;5.32;1.58;;;;;;;;;;5061190;28;20113;-79
2022/05/09 16:01:47;;;;;;;8.25;1.70;;;;;;;;;;5060020;28;20055;-80
2022/05/09 16:04:16;;;;;;;5.85;1.80;;;;;;;;;;5038080;28;20063;-77
2022/05/09 16:12:17;;;;;;;6.10;1.80;;;;;;;;;;5053794;28;20048;-77
2022/05/09 16:14:49;;;;;;;4.55;1.70;;;;;;;;;;5053263;28;20041;-79
2022/05/09 16:17:18;;;;;;;7.82;2.50;;;;;;;;;;5039443;28;20053;-79
2022/05/09 16:19:59;;;;;;;18.02;7.60;;;;;;;;;;5038215;28;20053;-78
2022/05/09 16:22:31;;;;;;;9.38;3.08;;;;;;;;;;5053817;28;20048;-79
2022/05/09 16:25:00;;;;;;;4.63;1.90;;;;;;;;;;5058329;28;20048;-79
2022/05/09 16:27:33;;;;;;;4.30;1.70;;;;;;;;;;5054868;28;20136;-78
2022/05/09 16:30:06;;;;;;;6.88;2.05;;;;;;;;;;5060891;28;20041;-80
2022/05/09 16:32:38;;;;;;;6.40;1.73;;;;;;;;;;5060213;28;20045;-78
2022/05/09 16:35:05;;;;;;;6.97;1.90;;;;;;;;;;5061006;28;20045;-79
2022/05/09 16:37:33;;;;;;;4.85;1.45;;;;;;;;;;5061778;28;20152;-79
2022/05/09 16:40:01;;;;;;;5.70;1.95;;;;;;;;;;5064167;28;20052;-79
2022/05/09 16:42:33;;;;;;;6.72;2.30;;;;;;;;;;5060153;28;20071;-79
2022/05/09 16:45:06;;;;;;;9.43;2.17;;;;;;;;;;5062498;28;20059;-80
2022/05/09 16:47:37;;;;;;;4.20;1.70;;;;;;;;;;5063117;28;20103;-79
2022/05/09 16:50:08;;;;;;;6.68;1.80;;;;;;;;;;5060629;28;20040;-80
2022/05/09 16:52:37;;;;;;;7.40;1.70;;;;;;;;;;5060539;28;20059;-80
2022/05/09 16:55:07;;;;;;;6.00;1.70;;;;;;;;;;5034266;28;20049;-80
2022/05/09 16:57:35;;;;;;;5.03;1.60;;;;;;;;;;5037952;28;20146;-80
2022/05/09 17:00:09;;;;;;;8.38;2.03;;;;;;;;;;5053667;28;20450;-79
2022/05/09 17:02:37;;;;;;;9.57;1.95;;;;;;;;;;5022551;28;20052;-80
2022/05/09 17:05:05;;;;;;;5.03;2.05;;;;;;;;;;5024648;28;20037;-80
2022/05/09 17:07:32;;;;;;;8.85;2.33;;;;;;;;;;5037845;28;20057;-80
2022/05/09 17:10:01;;;;;;;8.13;1.70;;;;;;;;;;5057634;28;20044;-79
2022/05/09 17:12:38;;;;;;;4.60;1.50;;;;;;;;;;5058283;28;20501;-80
2022/05/09 17:15:16;;;;;;;6.70;1.73;;;;;;;;;;5036157;28;20581;-79
2022/05/09 17:17:47;;;;;;;6.90;2.03;;;;;;;;;;5055221;28;20107;-80
2022/05/09 17:20:24;;;;;;;9.50;2.03;;;;;;;;;;5056391;28;20051;-80
2022/05/09 17:22:54;;;;;;;10.35;3.35;;;;;;;;;;5024883;28;20094;-79
2022/05/09 17:25:26;;;;;;;9.13;2.53;;;;;;;;;;5051666;28;20405;-79
2022/05/09 17:27:53;;;;;;;6.68;2.00;;;;;;;;;;5053295;28;20057;-79
2022/05/09 17:30:26;;;;;;;7.75;2.03;;;;;;;;;;5053747;28;20106;-79
2022/05/09 17:33:14;;;;;;;7.47;1.98;;;;;;;;;;5055155;28;20064;-79
2022/05/09 17:38:27;;;;;;;4.15;1.52;;;;;;;;;;5056138;28;20052;-79
2022/05/09 17:41:08;;;;;;;6.82;1.63;;;;;;;;;;5053876;28;20402;-79
2022/05/09 17:43:35;;;;;;;5.03;1.58;;;;;;;;;;5054799;28;20055;-79
2022/05/09 17:46:03;;;;;;;7.57;1.75;;;;;;;;;;5053554;28;20049;-79
2022/05/09 17:48:31;;;;;;;8.65;2.03;;;;;;;;;;5056410;28;20084;-78
2022/05/09 17:50:58;;;;;;;5.97;1.90;;;;;;;;;;5053536;28;20045;-79
2022/05/09 17:53:27;;;;;;;10.30;1.83;;;;;;;;;;5033890;28;20126;-78
2022/05/09 17:55:59;;;;;;;7.90;2.08;;;;;;;;;;5034894;28;20061;-79
2022/05/09 17:58:33;;;;;;;6.10;1.73;;;;;;;;;;5054585;28;20488;-79
2022/05/09 18:01:07;;;;;;;4.43;1.80;;;;;;;;;;5038454;28;20041;-79
2022/05/09 18:03:35;;;;;;;4.40;1.63;;;;;;;;;;5049573;28;20056;-79
2022/05/09 18:06:03;;;;;;;8.05;1.80;;;;;;;;;;5052731;28;20040;-79
2022/05/09 18:08:32;;;;;;;10.20;1.85;;;;;;;;;;5038443;28;20525;-80
2022/05/09 18:11:04;;;;;;;7.35;2.00;;;;;;;;;;5052901;28;20049;-80
2022/05/09 18:13:37;;;;;;;7.70;1.95;;;;;;;;;;5040377;28;20572;-80
2022/05/09 18:16:09;;;;;;;5.57;1.95;;;;;;;;;;5054912;28;20458;-80
2022/05/09 18:18:53;;;;;;;4.45;1.65;;;;;;;;;;5057044;28;20139;-80
2022/05/09 18:21:30;;;;;;;5.75;1.70;;;;;;;;;;5037254;28;20079;-80
2022/05/09 18:24:13;;;;;;;12.88;2.10;;;;;;;;;;5041460;28;20063;-80
2022/05/09 18:26:44;;;;;;;6.75;2.13;;;;;;;;;;5052205;28;20118;-78
2022/05/09 18:29:14;;;;;;;4.45;1.83;;;;;;;;;;5012444;28;20049;-79
2022/05/09 18:31:45;;;;;;;7.90;2.08;;;;;;;;;;5056984;28;20052;-81
2022/05/09 18:34:21;;;;;;;3.20;1.58;;;;;;;;;;5031919;28;20056;-83
2022/05/09 18:37:10;;;;;;;7.90;2.20;;;;;;;;;;5032070;28;20072;-82
2022/05/09 18:39:47;;;;;;;5.60;1.80;;;;;;;;;;5061906;28;20552;-79
2022/05/09 18:42:20;;;;;;;7.55;1.90;;;;;;;;;;5059715;28;20131;-80
2022/05/09 18:44:48;;;;;;;9.13;2.10;;;;;;;;;;5042377;28;20081;-80
2022/05/09 18:47:21;;;;;;;6.50;1.88;;;;;;;;;;5042643;28;20687;-79
2022/05/09 18:52:36;;;;;;;5.15;1.77;;;;;;;;;;5057599;28;20117;-78
2022/05/09 18:55:19;;;;;;;6.75;2.35;;;;;;;;;;5056486;28;20052;-80
2022/05/09 18:57:54;;;;;;;5.15;1.88;;;;;;;;;;5064395;28;20513;-80
2022/05/09 19:00:31;;;;;;;6.85;2.83;;;;;;;;;;5043278;28;20047;-80
2022/05/09 19:03:06;;;;;;;4.47;1.80;;;;;;;;;;5040578;28;20062;-80
2022/05/09 19:05:36;;;;;;;11.40;2.70;;;;;;;;;;5059297;28;20102;-80
2022/05/09 19:08:07;;;;;;;6.53;2.10;;;;;;;;;;5039332;28;20074;-79
2022/05/09 19:10:39;;;;;;;3.22;1.70;;;;;;;;;;5039560;28;20489;-79
2022/05/09 19:13:12;;;;;;;4.95;1.80;;;;;;;;;;5055108;28;20069;-80
2022/05/09 19:15:59;;;;;;;6.40;2.33;;;;;;;;;;5056018;28;20053;-81
2022/05/09 19:18:33;;;;;;;4.57;1.70;;;;;;;;;;5027271;28;20061;-78
2022/05/09 19:21:36;;;;;;;10.18;2.00;;;;;;;;;;5023108;28;20100;-78
2022/05/09 19:24:06;;;;;;;8.40;2.20;;;;;;;;;;5042928;28;20049;-80
2022/05/09 19:26:35;;;;;;;4.95;2.17;;;;;;;;;;5060044;28;20128;-80
2022/05/09 19:29:05;;;;;;;6.15;1.95;;;;;;;;;;5059839;28;20162;-80
2022/05/09 19:31:40;;;;;;;6.28;1.90;;;;;;;;;;5059196;28;20057;-80
2022/05/09 19:34:17;;;;;;;5.63;1.65;;;;;;;;;;5044589;28;20048;-81
2022/05/09 19:36:45;;;;;;;6.80;1.80;;;;;;;;;;5031202;28;20131;-84
2022/05/09 19:39:13;;;;;;;4.93;1.88;;;;;;;;;;5061400;28;20479;-83
2022/05/09 19:41:47;;;;;;;4.07;1.58;;;;;;;;;;5064748;28;20578;-82
2022/05/09 19:44:19;;;;;;;7.05;2.25;;;;;;;;;;5045575;28;20608;-82
2022/05/09 19:47:39;;;;;;;5.40;2.13;;;;;;;;;;5060451;28;20052;-83
2022/05/09 19:51:09;;;;;;;6.00;1.92;;;;;;;;;;5018860;28;20112;-82
2022/05/09 19:54:03;;;;;;;6.03;2.00;;;;;;;;;;4984141;28;20050;-80
2022/05/09 19:56:45;;;;;;;9.30;1.80;;;;;;;;;;5000650;28;20057;-81
2022/05/09 19:59:56;;;;;;;9.30;2.60;;;;;;;;;;4978904;28;20150;-81
2022/05/09 20:02:32;;;;;;;13.63;2.15;;;;;;;;;;4963750;28;20160;-82
2022/05/09 20:05:16;;;;;;;9.40;1.88;;;;;;;;;;4960076;28;20133;-82
2022/05/09 20:08:00;;;;;;;4.97;1.75;;;;;;;;;;4951934;28;20050;-81
2022/05/09 20:10:30;;;;;;;7.93;2.22;;;;;;;;;;4964301;28;20199;-81
2022/05/09 20:13:15;;;;;;;;;;;;;;;;;;4976601;28;20058;-81
2022/05/09 20:15:47;;;;;;;4.22;1.60;;;;;;;;;;4959117;28;19925;-82